Time;durP1;ratioP1;P1;durP2;ratioP2;P2;SDS_P1;SDS_P2;PMS_P1;PMS_P2;Temp;Humidity;BMP_temperature;BMP_pressure;BME280_temperature;BME280_humidity;BME280_pressure;Samples;Min_cycle;Max_cycle;Signal;HPM_P1;HPM_P2
2022/05/30 00:01:43;;;;;;;6.10;1.50;;;;;;;8.32;90.95;101337.03;5106337;28;20035;-73
2022/05/30 00:04:08;;;;;;;5.20;1.88;;;;;;;8.25;91.64;101333.59;5112200;28;20067;-73
2022/05/30 00:06:34;;;;;;;4.03;1.77;;;;;;;8.21;90.44;101324.13;5111637;28;20051;-73
2022/05/30 00:08:59;;;;;;;5.80;1.88;;;;;;;8.17;92.14;101325.88;5110899;28;20115;-74
2022/05/30 00:11:26;;;;;;;11.38;2.10;;;;;;;8.12;92.30;101332.81;5097979;28;20023;-73
2022/05/30 00:13:52;;;;;;;4.68;1.77;;;;;;;8.05;91.24;101338.06;5092865;28;20048;-75
2022/05/30 00:16:21;;;;;;;9.23;2.45;;;;;;;7.98;91.82;101332.88;5094297;28;20443;-73
2022/05/30 00:18:47;;;;;;;5.35;1.80;;;;;;;7.99;92.28;101338.94;5110880;28;20125;-73
2022/05/30 00:21:12;;;;;;;5.55;2.05;;;;;;;8.01;92.15;101337.22;5098247;28;20036;-73
2022/05/30 00:23:40;;;;;;;9.30;2.15;;;;;;;7.97;92.15;101336.34;5100986;28;20473;-73
2022/05/30 00:26:07;;;;;;;8.57;1.70;;;;;;;8.00;91.37;101329.41;5112334;28;20425;-73
2022/05/30 00:28:33;;;;;;;7.03;2.13;;;;;;;7.96;91.99;101331.16;5111490;28;20023;-73
2022/05/30 00:30:58;;;;;;;6.38;1.90;;;;;;;8.02;92.13;101331.13;5095989;28;20051;-73
2022/05/30 00:33:24;;;;;;;6.47;2.25;;;;;;;8.10;92.85;101321.56;5110639;28;20096;-73
2022/05/30 00:35:49;;;;;;;6.28;1.85;;;;;;;8.19;93.38;101321.50;5111433;28;20027;-73
2022/05/30 00:38:14;;;;;;;5.35;2.22;;;;;;;8.21;92.82;101324.97;5111815;28;20031;-74
2022/05/30 00:40:40;;;;;;;6.53;1.75;;;;;;;8.18;92.83;101325.00;5108726;28;20023;-73
2022/05/30 00:43:26;;;;;;;6.82;2.05;;;;;;;8.21;92.68;101324.97;5111306;28;20441;-73
2022/05/30 00:45:54;;;;;;;7.68;2.33;;;;;;;8.17;91.73;101325.88;5112092;28;20085;-73
2022/05/30 00:48:23;;;;;;;6.70;2.13;;;;;;;8.23;93.10;101321.50;5096690;28;20023;-73
2022/05/30 00:50:51;;;;;;;7.68;2.15;;;;;;;8.19;92.08;101316.31;5108511;28;20030;-73
2022/05/30 00:53:17;;;;;;;6.57;2.33;;;;;;;8.21;93.32;101312.00;5110602;28;20441;-73
2022/05/30 00:55:43;;;;;;;11.52;2.53;;;;;;;8.21;92.65;101312.00;5109565;28;20071;-73
2022/05/30 00:58:12;;;;;;;8.93;2.15;;;;;;;8.18;92.30;101308.56;5112398;28;20369;-73
2022/05/30 01:00:38;;;;;;;5.57;2.45;;;;;;;8.16;92.94;101313.72;5110577;28;20024;-74
2022/05/30 01:08:32;;;;;;;7.60;2.40;;;;;;;8.06;93.31;101313.81;5111589;28;20039;-73
2022/05/30 01:10:57;;;;;;;9.52;2.50;;;;;;;8.01;93.37;101311.25;5109018;28;20016;-73
2022/05/30 01:13:24;;;;;;;5.93;2.38;;;;;;;7.95;93.02;101306.94;5109641;28;20035;-73
2022/05/30 01:15:50;;;;;;;6.38;2.30;;;;;;;7.90;93.49;101313.00;5111828;28;20023;-73
2022/05/30 01:18:31;;;;;;;6.43;2.45;;;;;;;7.86;94.14;101306.13;5111057;28;20106;-73
2022/05/30 01:21:24;;;;;;;7.10;2.35;;;;;;;7.86;94.44;101306.13;5106536;28;20024;-73
2022/05/30 01:24:14;;;;;;;9.43;2.95;;;;;;;7.88;94.63;101310.44;5101831;28;20032;-74
2022/05/30 01:26:55;;;;;;;3.85;1.98;;;;;;;7.86;94.05;101300.94;5100485;28;20451;-73
2022/05/30 01:29:26;;;;;;;8.98;2.88;;;;;;;7.84;94.71;101311.31;5110285;28;20478;-73
2022/05/30 01:31:55;;;;;;;8.90;2.55;;;;;;;7.82;94.98;101301.81;5106137;28;20478;-73
2022/05/30 01:34:23;;;;;;;10.25;2.85;;;;;;;7.80;95.73;101295.75;5109177;28;20386;-73
2022/05/30 01:36:48;;;;;;;7.70;2.30;;;;;;;7.76;94.96;101294.06;5110881;28;20409;-73
2022/05/30 01:39:13;;;;;;;9.00;2.70;;;;;;;7.74;95.87;101294.91;5108685;28;20061;-73
2022/05/30 01:41:38;;;;;;;10.27;2.80;;;;;;;7.65;96.25;101286.31;5111566;28;20038;-73
2022/05/30 01:44:04;;;;;;;11.60;2.67;;;;;;;7.74;96.31;101289.72;5110644;28;20046;-73
2022/05/30 01:46:29;;;;;;;7.40;2.45;;;;;;;7.73;96.41;101287.16;5110624;28;20035;-73
2022/05/30 01:48:54;;;;;;;9.07;3.40;;;;;;;7.70;96.60;101285.41;5109952;28;20027;-73
2022/05/30 01:51:22;;;;;;;9.38;3.20;;;;;;;7.72;97.08;101291.47;5111547;28;20027;-73
2022/05/30 01:53:48;;;;;;;12.55;3.10;;;;;;;7.79;96.63;101286.25;5106946;28;20030;-73
2022/05/30 01:56:14;;;;;;;9.70;3.80;;;;;;;7.76;96.17;101291.47;5110144;28;20031;-73
2022/05/30 01:58:39;;;;;;;6.28;2.95;;;;;;;7.80;97.44;101283.66;5109906;28;20024;-73
2022/05/30 02:01:26;;;;;;;5.45;2.53;;;;;;;7.79;96.73;101276.75;5110833;28;20032;-73
2022/05/30 02:03:52;;;;;;;7.75;2.78;;;;;;;7.84;96.46;101284.50;5112603;28;20081;-73
2022/05/30 02:06:19;;;;;;;7.35;2.97;;;;;;;7.80;96.39;101283.66;5114220;28;20442;-73
2022/05/30 02:08:47;;;;;;;8.13;3.30;;;;;;;7.83;97.06;101286.22;5113724;28;20032;-73
2022/05/30 02:11:13;;;;;;;11.02;3.28;;;;;;;7.84;97.49;101285.34;5114884;28;20103;-73
2022/05/30 02:13:38;;;;;;;8.52;3.00;;;;;;;7.83;97.27;101280.19;5112809;27;20169;-73
2022/05/30 02:18:50;;;;;;;11.57;3.33;;;;;;;7.84;97.28;101284.50;5113287;28;20092;-73
2022/05/30 02:21:15;;;;;;;5.35;2.97;;;;;;;7.86;97.30;101285.34;5109096;28;20483;-73
2022/05/30 02:23:41;;;;;;;10.00;3.70;;;;;;;7.83;97.06;101272.38;5112632;28;20035;-73
2022/05/30 02:26:06;;;;;;;12.10;3.67;;;;;;;7.83;97.02;101278.44;5113921;28;20145;-73
2022/05/30 02:28:31;;;;;;;10.10;3.50;;;;;;;7.85;97.16;101284.50;5112921;28;20062;-73
2022/05/30 02:30:57;;;;;;;11.75;3.55;;;;;;;7.85;97.01;101283.66;5114741;28;20027;-73
2022/05/30 02:38:50;;;;;;;16.02;4.65;;;;;;;7.70;97.57;101275.03;5114309;28;20081;-73
2022/05/30 02:41:18;;;;;;;9.30;4.00;;;;;;;7.67;97.94;101276.78;5106475;28;20422;-73
2022/05/30 02:43:43;;;;;;;11.57;4.63;;;;;;;7.63;97.75;101273.34;5113246;28;20031;-73
2022/05/30 02:46:09;;;;;;;9.27;4.35;;;;;;;7.58;98.38;101271.63;5114401;28;20015;-73
2022/05/30 02:48:34;;;;;;;12.95;5.85;;;;;;;7.55;98.37;101269.91;5113419;28;20465;-73
2022/05/30 02:51:00;;;;;;;9.80;4.38;;;;;;;7.54;99.25;101273.38;5113161;28;20061;-73
2022/05/30 02:53:25;;;;;;;13.85;5.50;;;;;;;7.49;99.03;101276.00;5111404;28;20530;-73
2022/05/30 02:55:50;;;;;;;10.70;4.80;;;;;;;7.46;99.25;101273.41;5112011;28;20055;-73
2022/05/30 02:58:16;;;;;;;13.38;5.35;;;;;;;7.42;99.60;101276.91;5113941;28;20039;-73
2022/05/30 03:00:42;;;;;;;12.30;5.25;;;;;;;7.41;99.72;101276.91;5112867;28;20042;-73
2022/05/30 03:03:07;;;;;;;10.75;5.38;;;;;;;7.39;100.00;101276.91;5113205;28;20406;-73
2022/05/30 03:05:32;;;;;;;12.25;5.55;;;;;;;7.36;100.00;101276.06;5109851;28;20032;-73
2022/05/30 03:07:59;;;;;;;10.73;5.65;;;;;;;7.30;100.00;101276.94;5112797;28;20387;-74
2022/05/30 03:10:25;;;;;;;12.77;5.72;;;;;;;7.22;100.00;101282.13;5113005;28;20019;-73
2022/05/30 03:12:50;;;;;;;9.65;5.53;;;;;;;7.20;100.00;101278.69;5111987;28;20077;-73
2022/05/30 03:15:15;;;;;;;14.07;6.32;;;;;;;7.14;100.00;101276.09;5111608;28;20024;-73
2022/05/30 03:17:40;;;;;;;11.77;6.60;;;;;;;7.10;100.00;101282.19;5112986;28;20023;-73
2022/05/30 03:20:06;;;;;;;13.00;6.03;;;;;;;7.11;100.00;101283.91;5113794;28;20015;-73
2022/05/30 03:22:31;;;;;;;10.82;5.75;;;;;;;7.09;100.00;101277.84;5106860;28;20356;-73
2022/05/30 03:24:57;;;;;;;15.00;6.57;;;;;;;7.08;100.00;101283.91;5111795;28;20032;-74
2022/05/30 03:27:22;;;;;;;14.93;6.45;;;;;;;7.07;100.00;101286.50;5113469;28;20500;-73
2022/05/30 03:29:47;;;;;;;12.20;6.40;;;;;;;7.00;100.00;101277.88;5113483;28;20007;-73
2022/05/30 03:32:12;;;;;;;11.10;6.40;;;;;;;6.97;100.00;101285.66;5110492;28;20034;-73
2022/05/30 03:34:38;;;;;;;13.48;6.28;;;;;;;6.99;100.00;101294.28;5111381;28;20019;-73
2022/05/30 03:37:03;;;;;;;15.82;6.82;;;;;;;6.95;100.00;101289.97;5112833;28;20058;-73
2022/05/30 03:39:29;;;;;;;13.23;6.45;;;;;;;6.93;100.00;101289.09;5112988;28;20040;-73
2022/05/30 03:41:54;;;;;;;13.32;6.10;;;;;;;6.93;100.00;101296.88;5108124;28;20016;-73
2022/05/30 03:44:19;;;;;;;15.00;6.25;;;;;;;6.94;100.00;101303.81;5105661;28;20418;-73
2022/05/30 03:46:45;;;;;;;11.48;6.63;;;;;;;6.95;100.00;101303.78;5113132;28;20088;-73
2022/05/30 03:49:10;;;;;;;13.23;6.97;;;;;;;6.93;100.00;101304.66;5111495;28;20114;-73
2022/05/30 03:51:35;;;;;;;12.07;6.60;;;;;;;6.93;100.00;101308.13;5109434;28;20020;-73
2022/05/30 03:54:01;;;;;;;14.23;6.63;;;;;;;6.94;100.00;101306.41;5108223;28;20633;-73
2022/05/30 03:56:26;;;;;;;14.55;6.57;;;;;;;6.93;100.00;101307.25;5112952;28;20032;-73
2022/05/30 03:58:51;;;;;;;10.80;5.82;;;;;;;6.92;100.00;101308.13;5110845;28;20103;-73
2022/05/30 04:01:17;;;;;;;12.18;6.90;;;;;;;6.94;100.00;101301.22;5112694;28;20039;-73
2022/05/30 04:03:42;;;;;;;11.82;6.18;;;;;;;7.02;100.00;101304.66;5111566;28;20404;-73
2022/05/30 04:06:08;;;;;;;17.55;6.60;;;;;;;7.10;100.00;101302.06;5112278;28;20035;-73
2022/05/30 04:08:33;;;;;;;15.15;6.75;;;;;;;7.15;100.00;101295.13;5111975;28;20437;-73
2022/05/30 04:10:59;;;;;;;15.98;6.80;;;;;;;7.20;100.00;101296.00;5111908;28;20027;-73
2022/05/30 04:13:25;;;;;;;12.63;6.82;;;;;;;7.22;100.00;101292.50;5111846;28;20080;-73
2022/05/30 04:15:50;;;;;;;15.23;7.30;;;;;;;7.26;100.00;101299.44;5112505;28;20027;-73
2022/05/30 04:18:15;;;;;;;14.73;6.90;;;;;;;7.28;100.00;101292.47;5112556;28;20035;-73
2022/05/30 04:20:41;;;;;;;15.00;7.10;;;;;;;7.30;100.00;101295.09;5106724;28;20148;-74
2022/05/30 04:23:07;;;;;;;15.68;6.43;;;;;;;7.30;100.00;101289.91;5099804;28;20023;-73
2022/05/30 04:25:32;;;;;;;17.38;7.22;;;;;;;7.28;100.00;101292.47;5106251;28;20024;-73
2022/05/30 04:27:58;;;;;;;17.45;6.55;;;;;;;7.22;100.00;101284.72;5108344;28;20038;-73
2022/05/30 04:30:24;;;;;;;20.13;7.75;;;;;;;7.17;100.00;101285.63;5112510;28;20027;-73
2022/05/30 04:32:49;;;;;;;20.17;7.45;;;;;;;7.13;100.00;101289.94;5112162;28;20007;-73
2022/05/30 04:35:15;;;;;;;14.80;7.28;;;;;;;7.11;100.00;101303.78;5107931;28;20337;-73
2022/05/30 04:37:40;;;;;;;18.83;7.45;;;;;;;7.04;100.00;101297.75;5111924;28;20034;-73
2022/05/30 04:40:08;;;;;;;12.77;6.95;;;;;;;7.02;100.00;101297.72;5110556;28;20020;-73
2022/05/30 04:42:34;;;;;;;19.70;7.85;;;;;;;6.97;100.00;101301.22;5109993;28;20074;-73
2022/05/30 04:44:59;;;;;;;18.60;8.13;;;;;;;6.96;100.00;101305.50;5099635;28;20102;-73
2022/05/30 04:47:24;;;;;;;18.95;8.35;;;;;;;6.94;100.00;101309.84;5109627;28;20036;-73
2022/05/30 04:49:50;;;;;;;18.55;7.75;;;;;;;6.92;100.00;101305.53;5112055;28;20027;-73
2022/05/30 04:52:15;;;;;;;18.85;7.72;;;;;;;6.92;100.00;101308.13;5111942;28;20026;-73
2022/05/30 04:54:41;;;;;;;17.45;6.57;;;;;;;6.93;100.00;101312.44;5107722;28;20043;-73
2022/05/30 04:57:07;;;;;;;15.98;7.85;;;;;;;6.94;100.00;101311.59;5112046;28;20047;-73
2022/05/30 04:59:33;;;;;;;15.40;8.27;;;;;;;6.94;100.00;101309.00;5111710;28;20027;-73
2022/05/30 05:01:58;;;;;;;17.27;7.97;;;;;;;7.07;100.00;101312.44;5111251;28;20404;-73
2022/05/30 05:04:23;;;;;;;21.98;7.88;;;;;;;7.19;100.00;101313.28;5110329;28;20053;-73
2022/05/30 05:06:49;;;;;;;18.00;7.88;;;;;;;7.26;100.00;101309.81;5109084;28;20428;-73
2022/05/30 05:09:17;;;;;;;21.65;7.97;;;;;;;7.32;100.00;101310.63;5111285;28;20028;-73
2022/05/30 05:11:44;;;;;;;15.18;7.63;;;;;;;7.39;100.00;101310.63;5110653;28;20039;-73
2022/05/30 05:14:09;;;;;;;16.73;8.30;;;;;;;7.42;100.00;101314.94;5111945;28;20024;-73
2022/05/30 05:16:35;;;;;;;16.63;7.82;;;;;;;7.56;100.00;101317.50;5107486;28;20028;-73
2022/05/30 05:19:01;;;;;;;18.48;7.07;;;;;;;7.64;100.00;101311.38;5110825;28;20039;-73
2022/05/30 05:21:29;;;;;;;14.50;7.25;;;;;;;7.84;100.00;101316.50;5103418;28;20028;-73
2022/05/30 05:23:54;;;;;;;16.52;7.32;;;;;;;7.98;100.00;101311.25;5105327;28;20019;-73
2022/05/30 05:26:20;;;;;;;17.38;7.10;;;;;;;8.18;100.00;101313.75;5109062;28;20490;-73
2022/05/30 05:28:46;;;;;;;17.02;7.28;;;;;;;8.34;100.00;101322.31;5103192;28;20035;-73
2022/05/30 05:31:32;;;;;;;17.75;7.32;;;;;;;8.50;99.22;101317.88;5108499;28;20016;-73
2022/05/30 05:33:59;;;;;;;14.68;6.38;;;;;;;8.63;96.97;101317.78;5111837;28;20031;-73
2022/05/30 05:36:30;;;;;;;17.17;6.53;;;;;;;8.71;95.49;101319.47;5106933;28;20023;-73
2022/05/30 05:38:56;;;;;;;15.10;6.45;;;;;;;8.76;95.96;101322.88;5116161;28;20032;-73
2022/05/30 05:41:21;;;;;;;10.38;5.10;;;;;;;8.79;94.13;101326.31;5115429;28;20026;-73
2022/05/30 05:43:47;;;;;;;10.32;5.30;;;;;;;8.76;92.60;101328.94;5114648;28;20154;-73
2022/05/30 05:46:18;;;;;;;14.18;5.93;;;;;;;8.75;93.04;101327.22;5112178;28;20024;-73
2022/05/30 05:48:44;;;;;;;17.63;5.47;;;;;;;8.74;94.91;101320.28;5115211;28;20356;-73
2022/05/30 05:51:10;;;;;;;14.68;5.95;;;;;;;8.78;94.27;101327.19;5114668;28;20031;-73
2022/05/30 05:53:36;;;;;;;11.30;5.78;;;;;;;8.83;92.90;101330.63;5110993;28;20023;-73
2022/05/30 05:56:18;;;;;;;12.00;4.88;;;;;;;8.91;92.08;101333.16;5113312;28;20048;-73
2022/05/30 05:58:44;;;;;;;10.48;4.22;;;;;;;8.98;91.33;101332.22;5114424;28;20031;-73
2022/05/30 06:01:16;;;;;;;12.55;4.72;;;;;;;9.01;89.99;101328.72;5113874;28;20102;-73
2022/05/30 06:03:41;;;;;;;13.10;4.25;;;;;;;9.10;89.16;101334.72;5114761;28;20028;-73
2022/05/30 06:06:07;;;;;;;12.00;4.10;;;;;;;9.24;89.03;101333.72;5113515;28;20035;-73
2022/05/30 06:08:33;;;;;;;9.85;3.90;;;;;;;9.34;86.41;101335.34;5111184;28;20024;-74
2022/05/30 06:11:05;;;;;;;11.68;4.53;;;;;;;9.42;86.92;101333.53;5115241;28;20399;-73
2022/05/30 06:13:40;;;;;;;11.10;3.35;;;;;;;9.43;85.10;101332.63;5113694;28;20039;-73
2022/05/30 06:16:07;;;;;;;19.42;3.70;;;;;;;9.43;85.25;101332.63;5114191;28;20032;-73
2022/05/30 06:18:34;;;;;;;12.52;3.80;;;;;;;9.43;84.11;101339.59;5114488;28;20076;-73
2022/05/30 06:21:00;;;;;;;11.77;3.53;;;;;;;9.43;85.16;101335.25;5106214;28;20027;-73
2022/05/30 06:23:25;;;;;;;8.75;3.53;;;;;;;9.46;86.02;101330.00;5104918;28;20031;-73
2022/05/30 06:25:51;;;;;;;9.13;3.30;;;;;;;9.52;84.80;101336.91;5112644;28;20036;-73
2022/05/30 06:28:16;;;;;;;6.95;2.72;;;;;;;9.49;82.84;101331.72;5114548;28;20016;-73
2022/05/30 06:30:41;;;;;;;8.70;2.90;;;;;;;9.53;85.21;101334.25;5114595;28;20050;-73
2022/05/30 06:33:07;;;;;;;6.75;3.08;;;;;;;9.59;86.08;101334.19;5106752;28;20024;-73
2022/05/30 06:35:32;;;;;;;14.98;2.97;;;;;;;9.66;85.44;101336.72;5105104;28;20046;-74
2022/05/30 06:37:57;;;;;;;5.95;2.28;;;;;;;9.73;82.20;101343.56;5112309;28;20139;-73
2022/05/30 06:40:23;;;;;;;10.23;2.40;;;;;;;9.75;79.91;101336.63;5112715;28;20031;-73
2022/05/30 06:42:49;;;;;;;9.82;2.35;;;;;;;9.82;78.86;101333.91;5112758;28;20467;-73
2022/05/30 06:45:14;;;;;;;6.70;1.60;;;;;;;9.93;78.50;101340.72;5114211;28;20028;-73
2022/05/30 06:47:39;;;;;;;5.97;1.77;;;;;;;9.99;76.26;101340.66;5109311;28;20020;-73
2022/05/30 06:50:05;;;;;;;8.00;2.03;;;;;;;10.05;78.98;101338.81;5114381;28;20028;-73
2022/05/30 06:52:30;;;;;;;5.88;2.58;;;;;;;10.10;76.40;101343.97;5111863;28;20055;-73
2022/05/30 06:54:56;;;;;;;6.05;1.83;;;;;;;10.18;77.15;101339.53;5113254;28;20040;-73
2022/05/30 07:00:05;;;;;;;;;;;;;;;10.40;78.64;101345.34;5114802;28;20030;-73
2022/05/30 07:02:31;;;;;;;7.03;2.00;;;;;;;10.62;74.20;101337.16;5111695;28;19919;-73
2022/05/30 07:04:56;;;;;;;6.43;2.35;;;;;;;10.86;75.03;101343.75;5111299;28;20371;-73
2022/05/30 07:07:21;;;;;;;8.30;1.95;;;;;;;11.09;71.75;101340.75;5110228;28;20044;-73
2022/05/30 07:09:46;;;;;;;7.30;1.55;;;;;;;11.17;71.59;101344.06;5107224;28;20045;-73
2022/05/30 07:12:12;;;;;;;4.90;1.60;;;;;;;11.29;73.24;101349.06;5103304;28;20052;-73
2022/05/30 07:14:38;;;;;;;5.53;2.00;;;;;;;11.52;72.31;101340.81;5113922;28;20027;-73
2022/05/30 07:17:04;;;;;;;6.97;1.83;;;;;;;11.75;74.07;101342.97;5111958;28;20374;-73
2022/05/30 07:19:30;;;;;;;4.93;1.60;;;;;;;11.98;71.76;101339.06;5109451;28;20027;-73
2022/05/30 07:21:57;;;;;;;4.88;1.52;;;;;;;12.12;65.55;101327.38;5099681;28;20482;-73
2022/05/30 07:24:23;;;;;;;6.85;1.33;;;;;;;12.38;65.28;101339.88;5102944;28;20023;-73
2022/05/30 07:26:48;;;;;;;9.32;1.52;;;;;;;12.61;65.98;101334.09;5113679;28;20028;-73
2022/05/30 07:29:13;;;;;;;4.78;1.48;;;;;;;12.82;64.62;101343.19;5112482;28;20034;-72
2022/05/30 07:31:39;;;;;;;4.78;1.30;;;;;;;12.86;65.24;101342.22;5113515;28;20378;-73
2022/05/30 07:34:04;;;;;;;8.32;2.15;;;;;;;12.80;67.15;101342.38;5109362;28;20031;-73
2022/05/30 07:36:31;;;;;;;4.20;1.35;;;;;;;12.62;62.17;101345.41;5111692;28;20475;-72
2022/05/30 07:38:57;;;;;;;3.90;1.40;;;;;;;12.36;66.04;101346.91;5099982;28;20026;-73
2022/05/30 07:41:25;;;;;;;4.72;1.38;;;;;;;12.13;61.39;101344.81;5102115;28;20036;-73
2022/05/30 07:43:51;;;;;;;4.80;1.50;;;;;;;11.99;65.30;101348.59;5106934;28;20036;-72
2022/05/30 07:46:18;;;;;;;5.95;1.85;;;;;;;11.99;65.89;101352.06;5112194;28;20027;-73
2022/05/30 07:48:44;;;;;;;3.65;1.00;;;;;;;11.94;63.28;101346.94;5109557;28;20027;-79
2022/05/30 07:51:12;;;;;;;6.13;1.33;;;;;;;11.88;66.27;101348.84;5105973;28;20023;-73
2022/05/30 07:53:38;;;;;;;4.55;1.25;;;;;;;11.90;66.65;101347.03;5095088;27;20020;-73
2022/05/30 07:56:06;;;;;;;2.28;1.10;;;;;;;11.95;64.44;101345.19;5094238;28;20379;-73
2022/05/30 07:58:31;;;;;;;6.28;1.63;;;;;;;11.95;67.69;101340.81;5094056;28;20512;-73
2022/05/30 08:00:56;;;;;;;7.45;1.40;;;;;;;11.95;69.40;101335.59;5090905;28;20460;-73
2022/05/30 08:03:24;;;;;;;9.27;2.65;;;;;;;11.88;66.12;101335.78;5097208;28;20114;-73
2022/05/30 08:05:49;;;;;;;6.32;2.17;;;;;;;11.95;67.17;101339.97;5096222;28;20069;-74
2022/05/30 08:08:15;;;;;;;6.13;1.65;;;;;;;12.03;68.81;101343.25;5098967;28;20446;-73
2022/05/30 08:10:41;;;;;;;2.70;1.20;;;;;;;12.10;68.72;101334.44;5101297;28;20031;-73
2022/05/30 08:13:07;;;;;;;5.03;1.20;;;;;;;12.25;66.16;101337.56;5104779;28;20067;-73
2022/05/30 08:15:32;;;;;;;7.55;1.35;;;;;;;12.43;65.05;101337.16;5094874;28;20024;-73
2022/05/30 08:17:59;;;;;;;3.42;1.40;;;;;;;12.66;64.54;101344.47;5101709;28;20028;-73
2022/05/30 08:20:27;;;;;;;3.65;1.38;;;;;;;12.82;62.65;101340.59;5098815;28;20475;-73
2022/05/30 08:22:52;;;;;;;6.70;1.30;;;;;;;12.99;63.58;101331.44;5106557;28;20118;-73
2022/05/30 08:25:19;;;;;;;6.30;1.40;;;;;;;13.16;61.00;101350.19;5100307;28;20244;-73
2022/05/30 08:27:47;;;;;;;5.13;1.20;;;;;;;13.13;64.41;101340.66;5110292;28;20024;-73
2022/05/30 08:30:16;;;;;;;3.47;1.33;;;;;;;13.06;62.43;101343.47;5104801;28;20034;-74
2022/05/30 08:32:42;;;;;;;7.05;1.35;;;;;;;12.84;60.88;101333.53;5103542;28;20032;-73
2022/05/30 08:35:13;;;;;;;3.15;1.15;;;;;;;12.67;58.58;101345.31;5106415;28;20023;-73
2022/05/30 08:37:38;;;;;;;7.05;2.00;;;;;;;12.67;63.31;101346.19;5107455;28;20111;-73
2022/05/30 08:42:54;;;;;;;6.97;1.38;;;;;;;12.74;60.22;101349.50;5103421;28;20047;-73
2022/05/30 08:45:22;;;;;;;4.68;1.30;;;;;;;12.70;58.66;101353.09;5111875;28;20023;-73
2022/05/30 08:47:56;;;;;;;4.85;1.20;;;;;;;12.72;62.12;101357.41;5110706;28;20376;-73
2022/05/30 08:50:30;;;;;;;4.25;1.30;;;;;;;12.78;60.11;101349.38;5106475;28;20042;-73
2022/05/30 08:53:13;;;;;;;4.10;1.25;;;;;;;12.82;62.07;101355.44;5112083;28;20036;-73
2022/05/30 08:55:54;;;;;;;2.80;1.10;;;;;;;12.77;62.83;101354.66;5110821;28;20130;-73
2022/05/30 08:58:42;;;;;;;3.33;1.10;;;;;;;12.60;64.64;101362.91;5107705;28;20028;-73
2022/05/30 09:01:14;;;;;;;4.72;1.40;;;;;;;12.47;61.81;101356.25;5100984;28;20035;-73
2022/05/30 09:04:16;;;;;;;4.82;1.50;;;;;;;12.57;62.64;101360.38;5111308;28;20382;-74
2022/05/30 09:06:53;;;;;;;7.90;1.40;;;;;;;12.39;60.16;101359.91;5111732;28;20085;-73
2022/05/30 09:09:47;;;;;;;4.97;1.20;;;;;;;12.16;63.14;101364.78;5092206;28;20027;-73
2022/05/30 09:12:16;;;;;;;6.07;1.40;;;;;;;11.98;64.87;101365.19;5103820;28;20110;-73
2022/05/30 09:14:48;;;;;;;5.95;1.50;;;;;;;12.02;65.05;101366.81;5098529;28;20433;-74
2022/05/30 09:17:19;;;;;;;7.13;1.50;;;;;;;12.33;66.42;101361.81;5111820;28;20081;-72
2022/05/30 09:19:45;;;;;;;4.00;1.55;;;;;;;12.52;62.03;101359.63;5101056;28;20471;-73
2022/05/30 09:22:12;;;;;;;6.18;2.22;;;;;;;12.65;63.70;101350.56;5098065;28;20084;-72
2022/05/30 09:24:40;;;;;;;5.22;1.80;;;;;;;13.11;63.15;101352.06;5094269;28;20031;-72
2022/05/30 09:27:05;;;;;;;4.90;1.50;;;;;;;13.72;61.34;101350.44;5101247;28;20531;-72
2022/05/30 09:29:51;;;;;;;5.30;1.27;;;;;;;14.32;58.79;101353.03;5104688;28;20131;-72
2022/05/30 09:32:31;;;;;;;3.95;1.50;;;;;;;15.16;57.33;101345.94;5110502;28;20028;-72
2022/05/30 09:35:19;;;;;;;3.08;1.48;;;;;;;15.68;55.12;101344.09;5101452;28;20024;-73
2022/05/30 09:37:45;;;;;;;6.35;1.20;;;;;;;15.69;49.79;101344.97;5092685;28;20111;-73
2022/05/30 09:40:10;;;;;;;2.90;1.60;;;;;;;15.41;51.30;101342.47;5097619;28;20099;-73
2022/05/30 09:42:47;;;;;;;5.03;1.30;;;;;;;15.12;49.80;101341.69;5098636;28;20078;-72
2022/05/30 09:45:24;;;;;;;2.95;1.20;;;;;;;14.92;53.10;101349.41;5113719;28;20020;-73
2022/05/30 09:48:11;;;;;;;4.07;1.27;;;;;;;14.83;52.84;101345.31;5111262;28;20076;-72
2022/05/30 09:50:48;;;;;;;4.03;1.10;;;;;;;14.64;52.95;101358.16;5108236;28;20554;-72
2022/05/30 09:53:38;;;;;;;3.85;1.20;;;;;;;14.58;54.33;101347.88;5115108;28;20032;-73
2022/05/30 09:56:03;;;;;;;4.43;1.52;;;;;;;14.42;51.73;101351.84;5103882;28;20047;-72
2022/05/30 09:58:58;;;;;;;2.38;1.30;;;;;;;14.38;52.63;101360.72;5101018;28;20036;-72
2022/05/30 10:01:25;;;;;;;15.13;1.40;;;;;;;14.28;53.79;101353.13;5102739;28;20032;-72
2022/05/30 10:03:56;;;;;;;5.95;1.63;;;;;;;14.27;51.49;101350.56;5098301;28;20039;-73
2022/05/30 10:06:25;;;;;;;5.40;1.25;;;;;;;14.23;49.46;101351.56;5097144;28;20082;-72
2022/05/30 10:09:08;;;;;;;4.10;1.58;;;;;;;14.18;51.97;101348.22;5104402;28;20099;-72
2022/05/30 10:11:35;;;;;;;5.20;1.33;;;;;;;14.20;54.87;101347.28;5114022;28;20110;-73
2022/05/30 10:14:20;;;;;;;6.05;1.40;;;;;;;14.38;54.81;101351.09;5112237;28;20023;-72
2022/05/30 10:16:45;;;;;;;5.68;1.65;;;;;;;14.28;52.35;101350.50;5112647;28;20043;-73
2022/05/30 10:19:26;;;;;;;4.88;1.55;;;;;;;14.24;52.51;101351.53;5107238;28;20027;-73
2022/05/30 10:31:12;;;;;;;6.75;1.50;;;;;;;13.54;56.95;101359.69;5103344;28;20514;-72
2022/05/30 10:34:12;;;;;;;6.40;1.30;;;;;;;13.41;54.88;101360.06;5103508;28;20177;-72
2022/05/30 10:36:40;;;;;;;4.78;1.95;;;;;;;13.91;52.31;101355.16;5105213;28;20024;-72
2022/05/30 10:39:41;;;;;;;6.35;1.38;;;;;;;14.44;56.09;101350.03;5113462;28;20471;-72
2022/05/30 10:42:34;;;;;;;5.72;1.60;;;;;;;14.88;51.74;101351.28;5051546;28;20029;-73
2022/05/30 10:45:23;;;;;;;4.40;1.45;;;;;;;15.13;52.06;101356.53;5093035;28;20047;-71
2022/05/30 10:47:53;;;;;;;4.07;1.33;;;;;;;15.38;48.25;101351.31;5113371;28;20023;-72
2022/05/30 10:50:21;;;;;;;2.60;1.35;;;;;;;15.84;49.50;101356.69;5105394;27;20043;-72
2022/05/30 10:53:05;;;;;;;2.47;0.95;;;;;;;16.29;49.13;101350.59;5096678;28;20060;-73
2022/05/30 10:55:43;;;;;;;3.03;1.17;;;;;;;16.78;42.62;101343.41;5100380;28;20388;-73
2022/05/30 10:58:17;;;;;;;3.28;1.38;;;;;;;17.46;44.25;101349.25;5098717;28;20063;-77
2022/05/30 11:00:55;;;;;;;3.95;1.05;;;;;;;18.44;46.15;101336.84;5111335;28;20102;-72
2022/05/30 11:03:40;;;;;;;3.83;1.20;;;;;;;18.82;41.31;101339.41;5113238;27;20443;-72
2022/05/30 11:06:13;;;;;;;2.97;1.02;;;;;;;18.89;39.99;101336.38;5105780;28;20031;-76
2022/05/30 11:08:51;;;;;;;3.17;1.10;;;;;;;18.74;38.82;101334.53;5110391;28;20026;-72
2022/05/30 11:11:16;;;;;;;2.78;1.00;;;;;;;18.27;40.18;101344.72;5105784;28;20089;-72
2022/05/30 11:13:52;;;;;;;2.73;1.10;;;;;;;17.42;42.76;101348.53;5098596;28;20454;-72
2022/05/30 11:16:36;;;;;;;2.15;1.05;;;;;;;16.74;45.27;101350.53;5104296;28;20020;-72
2022/05/30 11:19:14;;;;;;;3.35;1.20;;;;;;;16.14;48.60;101363.41;5099521;28;20038;-72
2022/05/30 11:22:05;;;;;;;5.05;1.50;;;;;;;15.57;50.27;101351.50;5099822;28;20040;-72
2022/05/30 11:24:32;;;;;;;5.03;1.50;;;;;;;15.10;50.37;101351.38;5103319;28;20030;-73
2022/05/30 11:27:17;;;;;;;4.82;1.55;;;;;;;14.83;54.24;101368.06;5108298;28;20084;-73
2022/05/30 11:29:58;;;;;;;3.78;1.52;;;;;;;14.74;54.03;101359.59;5102154;28;20085;-72
2022/05/30 11:32:49;;;;;;;4.70;1.60;;;;;;;14.57;53.56;101363.66;5105801;27;20039;-73
2022/05/30 11:35:43;;;;;;;5.13;1.70;;;;;;;14.49;51.73;101356.88;5103503;28;20039;-72
2022/05/30 11:38:38;;;;;;;2.75;1.20;;;;;;;14.50;54.15;101362.97;5105979;28;20031;-72
2022/05/30 11:41:27;;;;;;;2.95;1.50;;;;;;;14.62;53.94;101370.50;5113543;28;20380;-72
2022/05/30 11:44:14;;;;;;;5.38;1.88;;;;;;;14.66;53.50;101366.84;5112295;28;20421;-72
2022/05/30 11:47:10;;;;;;;5.03;1.65;;;;;;;14.89;52.90;101362.63;5106749;28;20110;-73
2022/05/30 11:49:43;;;;;;;4.95;1.40;;;;;;;15.01;49.77;101364.84;5103257;28;20115;-72
2022/05/30 11:52:28;;;;;;;3.90;1.75;;;;;;;15.33;50.55;101363.72;5112538;28;20028;-73
2022/05/30 11:54:59;;;;;;;4.70;1.65;;;;;;;15.63;51.90;101360.91;5111748;28;20042;-72
2022/05/30 11:57:35;;;;;;;4.35;2.08;;;;;;;15.95;49.90;101357.13;5111602;28;20084;-72
2022/05/30 12:00:09;;;;;;;3.95;2.10;;;;;;;16.20;48.64;101361.47;5113091;28;20437;-72
2022/05/30 12:03:22;;;;;;;5.63;1.50;;;;;;;16.58;50.05;101355.56;5113120;28;20113;-73
2022/05/30 12:05:59;;;;;;;4.10;1.50;;;;;;;16.85;49.71;101358.03;5102028;28;20084;-72